Time;durP1;ratioP1;P1;durP2;ratioP2;P2;SDS_P1;SDS_P2;PMS_P1;PMS_P2;Temp;Humidity;BMP_temperature;BMP_pressure;BME280_temperature;BME280_humidity;BME280_pressure;Samples;Min_cycle;Max_cycle;Signal;HPM_P1;HPM_P2
2023/11/04 00:01:07;;;;;;;3.45;1.70;;;;;;;;;;5053205;28;20504;-86
2023/11/04 00:03:33;;;;;;;1.08;0.80;;;;;;;;;;5052947;28;20108;-83
2023/11/04 00:05:59;;;;;;;0.65;0.65;;;;;;;;;;5052604;28;20082;-85
2023/11/04 00:08:26;;;;;;;0.60;0.60;;;;;;;;;;5052963;28;20025;-84
2023/11/04 00:10:53;;;;;;;0.90;0.90;;;;;;;;;;5053222;28;20059;-86
2023/11/04 00:13:19;;;;;;;0.73;0.70;;;;;;;;;;5052830;28;20033;-85
2023/11/04 00:15:45;;;;;;;0.98;0.98;;;;;;;;;;5052915;28;20032;-84
2023/11/04 00:18:11;;;;;;;1.20;1.00;;;;;;;;;;5053018;28;20474;-84
2023/11/04 00:20:37;;;;;;;1.20;0.98;;;;;;;;;;5052688;28;20024;-84
2023/11/04 00:23:03;;;;;;;0.93;0.80;;;;;;;;;;5052550;28;20111;-86
2023/11/04 00:25:29;;;;;;;1.13;1.02;;;;;;;;;;5052659;28;20040;-85
2023/11/04 00:27:55;;;;;;;0.85;0.85;;;;;;;;;;5054072;28;20032;-86
2023/11/04 00:30:22;;;;;;;0.60;0.60;;;;;;;;;;5054471;28;20020;-85
2023/11/04 00:32:48;;;;;;;0.52;0.52;;;;;;;;;;5052783;28;20024;-85
2023/11/04 00:35:14;;;;;;;0.60;0.60;;;;;;;;;;5052811;28;20025;-85
2023/11/04 00:37:41;;;;;;;0.80;0.80;;;;;;;;;;5052915;28;20474;-85
2023/11/04 00:40:08;;;;;;;0.73;0.73;;;;;;;;;;5052710;28;20123;-86
2023/11/04 00:42:34;;;;;;;0.98;0.88;;;;;;;;;;5052531;28;20021;-84
2023/11/04 00:45:00;;;;;;;0.60;0.60;;;;;;;;;;5053801;28;20025;-85
2023/11/04 00:47:26;;;;;;;0.85;0.80;;;;;;;;;;5053117;28;20127;-85
2023/11/04 00:49:52;;;;;;;0.75;0.70;;;;;;;;;;5052377;28;20086;-88
2023/11/04 00:52:18;;;;;;;0.60;0.60;;;;;;;;;;5052213;28;20111;-86
2023/11/04 00:54:44;;;;;;;0.70;0.70;;;;;;;;;;5053281;28;20057;-86
2023/11/04 00:57:11;;;;;;;0.60;0.60;;;;;;;;;;5052038;28;20080;-85
2023/11/04 00:59:37;;;;;;;0.63;0.63;;;;;;;;;;5052499;28;20033;-87
2023/11/04 01:02:03;;;;;;;0.57;0.57;;;;;;;;;;5052233;28;20071;-83
2023/11/04 01:04:29;;;;;;;0.60;0.60;;;;;;;;;;5050487;28;20355;-84
2023/11/04 01:06:55;;;;;;;1.00;0.82;;;;;;;;;;5053553;28;20033;-84
2023/11/04 01:09:21;;;;;;;1.45;0.90;;;;;;;;;;5068719;28;20032;-84
2023/11/04 01:11:49;;;;;;;0.73;0.73;;;;;;;;;;5069024;28;20056;-84
2023/11/04 01:14:15;;;;;;;0.60;0.60;;;;;;;;;;5068809;28;20028;-84
2023/11/04 01:16:41;;;;;;;0.73;0.73;;;;;;;;;;5053146;28;20103;-82
2023/11/04 01:19:08;;;;;;;0.60;0.60;;;;;;;;;;5068888;28;20044;-84
2023/11/04 01:21:34;;;;;;;0.57;0.57;;;;;;;;;;5068580;28;20079;-84
2023/11/04 01:24:00;;;;;;;0.50;0.50;;;;;;;;;;5069590;28;20410;-84
2023/11/04 01:26:26;;;;;;;0.90;0.60;;;;;;;;;;5068620;28;20427;-84
2023/11/04 01:28:52;;;;;;;0.60;0.60;;;;;;;;;;5068451;28;20108;-85
2023/11/04 01:31:18;;;;;;;0.70;0.70;;;;;;;;;;5068903;28;20078;-85
2023/11/04 01:33:44;;;;;;;0.70;0.70;;;;;;;;;;5053301;28;20378;-85
2023/11/04 01:36:10;;;;;;;0.50;0.50;;;;;;;;;;5068357;28;20025;-85
2023/11/04 01:38:36;;;;;;;0.80;0.80;;;;;;;;;;5068685;28;20051;-84
2023/11/04 01:41:02;;;;;;;0.80;0.80;;;;;;;;;;5068930;28;20116;-83
2023/11/04 01:43:29;;;;;;;1.40;1.00;;;;;;;;;;5068372;28;20087;-83
2023/11/04 01:46:17;;;;;;;0.60;0.60;;;;;;;;;;5068656;28;20025;-84
2023/11/04 01:48:44;;;;;;;0.50;0.50;;;;;;;;;;5069401;28;20022;-84
2023/11/04 01:51:11;;;;;;;1.83;1.15;;;;;;;;;;5068206;28;20107;-84
2023/11/04 01:53:38;;;;;;;0.90;0.90;;;;;;;;;;5068763;28;20474;-84
2023/11/04 01:56:06;;;;;;;0.70;0.70;;;;;;;;;;5068476;28;20552;-84
2023/11/04 01:58:33;;;;;;;0.68;0.68;;;;;;;;;;5068173;28;20029;-83
2023/11/04 02:01:00;;;;;;;0.50;0.50;;;;;;;;;;5070517;28;20027;-84
2023/11/04 02:03:26;;;;;;;0.75;0.75;;;;;;;;;;5071834;28;20029;-84
2023/11/04 02:05:52;;;;;;;0.50;0.50;;;;;;;;;;5056250;28;20386;-83
2023/11/04 02:08:19;;;;;;;0.70;0.70;;;;;;;;;;5056806;28;20173;-82
2023/11/04 02:10:45;;;;;;;0.60;0.60;;;;;;;;;;5056351;28;20021;-84
2023/11/04 02:13:12;;;;;;;0.60;0.60;;;;;;;;;;5056890;28;20466;-84
2023/11/04 02:15:38;;;;;;;0.57;0.57;;;;;;;;;;5071915;28;20028;-85
2023/11/04 02:18:04;;;;;;;0.50;0.50;;;;;;;;;;5055999;28;20032;-84
2023/11/04 02:20:33;;;;;;;0.68;0.68;;;;;;;;;;5071878;28;20017;-84
2023/11/04 02:22:59;;;;;;;0.60;0.60;;;;;;;;;;5071691;28;20135;-86
2023/11/04 02:25:30;;;;;;;0.60;0.60;;;;;;;;;;5071451;28;20051;-84
2023/11/04 02:27:56;;;;;;;0.60;0.60;;;;;;;;;;5071553;28;20033;-84
2023/11/04 02:30:22;;;;;;;0.75;0.60;;;;;;;;;;5071672;28;20474;-84
2023/11/04 02:32:49;;;;;;;0.60;0.60;;;;;;;;;;5071373;28;20028;-85
2023/11/04 02:35:16;;;;;;;0.50;0.50;;;;;;;;;;5071655;28;20501;-86
2023/11/04 02:37:42;;;;;;;0.60;0.60;;;;;;;;;;5072346;28;20028;-85
2023/11/04 02:40:12;;;;;;;0.60;0.60;;;;;;;;;;5071368;28;20021;-85
2023/11/04 02:42:39;;;;;;;0.60;0.60;;;;;;;;;;5071395;28;20029;-84
2023/11/04 02:45:06;;;;;;;0.60;0.60;;;;;;;;;;5071227;28;20035;-85
2023/11/04 02:47:32;;;;;;;0.65;0.65;;;;;;;;;;5071116;28;20044;-84
2023/11/04 02:49:58;;;;;;;0.60;0.60;;;;;;;;;;5071390;28;20378;-83
2023/11/04 02:52:26;;;;;;;0.60;0.60;;;;;;;;;;5070466;28;20069;-83
2023/11/04 02:54:52;;;;;;;0.63;0.60;;;;;;;;;;5055381;28;20021;-84
2023/11/04 02:57:18;;;;;;;0.60;0.60;;;;;;;;;;5071090;28;20458;-84
2023/11/04 02:59:44;;;;;;;0.60;0.60;;;;;;;;;;5055636;28;20033;-84
2023/11/04 03:02:10;;;;;;;0.60;0.60;;;;;;;;;;5070954;28;20108;-84
2023/11/04 03:04:39;;;;;;;0.50;0.50;;;;;;;;;;5070797;28;20367;-84
2023/11/04 03:07:06;;;;;;;0.60;0.60;;;;;;;;;;5070446;28;20025;-85
2023/11/04 03:09:32;;;;;;;0.50;0.50;;;;;;;;;;5071414;28;20021;-85
2023/11/04 03:11:59;;;;;;;0.60;0.60;;;;;;;;;;5070340;28;20068;-85
2023/11/04 03:14:25;;;;;;;0.60;0.60;;;;;;;;;;5054698;28;20056;-85
2023/11/04 03:16:52;;;;;;;0.57;0.57;;;;;;;;;;5071346;28;20025;-84
2023/11/04 03:19:18;;;;;;;0.50;0.50;;;;;;;;;;5071388;28;20021;-84
2023/11/04 03:21:45;;;;;;;0.60;0.60;;;;;;;;;;5070354;28;20021;-84
2023/11/04 03:24:11;;;;;;;0.60;0.60;;;;;;;;;;5070374;28;20414;-84
2023/11/04 03:26:37;;;;;;;0.60;0.60;;;;;;;;;;5070370;28;20021;-83
2023/11/04 03:29:04;;;;;;;0.60;0.60;;;;;;;;;;5070153;28;20028;-84
2023/11/04 03:31:34;;;;;;;0.60;0.60;;;;;;;;;;5070340;28;20060;-84
2023/11/04 03:34:00;;;;;;;0.60;0.60;;;;;;;;;;5070799;28;20394;-85
2023/11/04 03:36:26;;;;;;;0.80;0.80;;;;;;;;;;5069978;28;20025;-84
2023/11/04 03:38:52;;;;;;;0.50;0.50;;;;;;;;;;5070684;28;20021;-83
2023/11/04 03:41:18;;;;;;;0.60;0.60;;;;;;;;;;5054285;28;20100;-84
2023/11/04 03:43:45;;;;;;;0.60;0.60;;;;;;;;;;5069906;28;20106;-85
2023/11/04 03:46:11;;;;;;;0.60;0.60;;;;;;;;;;5070051;28;20424;-84
2023/11/04 03:48:37;;;;;;;0.63;0.63;;;;;;;;;;5069751;28;20521;-84
2023/11/04 03:51:04;;;;;;;0.60;0.60;;;;;;;;;;5070261;28;20064;-84
2023/11/04 03:53:30;;;;;;;0.50;0.50;;;;;;;;;;5063323;28;20039;-84
2023/11/04 03:55:56;;;;;;;0.60;0.60;;;;;;;;;;5094853;28;20021;-84
2023/11/04 03:58:22;;;;;;;0.60;0.60;;;;;;;;;;5067717;28;20036;-85
2023/11/04 04:00:49;;;;;;;0.60;0.60;;;;;;;;;;5073936;28;20063;-84
2023/11/04 04:03:15;;;;;;;0.60;0.60;;;;;;;;;;5073808;28;20017;-84
2023/11/04 04:05:41;;;;;;;0.60;0.60;;;;;;;;;;5071226;28;20025;-84
2023/11/04 04:08:07;;;;;;;0.50;0.50;;;;;;;;;;5069708;28;20035;-84
2023/11/04 04:10:33;;;;;;;0.60;0.60;;;;;;;;;;5053833;28;20033;-83
2023/11/04 04:12:59;;;;;;;0.60;0.60;;;;;;;;;;5069480;28;20032;-84
2023/11/04 04:15:25;;;;;;;0.50;0.50;;;;;;;;;;5054680;28;20056;-83
2023/11/04 04:17:52;;;;;;;0.60;0.60;;;;;;;;;;5069205;28;20470;-83
2023/11/04 04:20:20;;;;;;;0.77;0.60;;;;;;;;;;5054319;28;20029;-85
2023/11/04 04:22:46;;;;;;;0.60;0.60;;;;;;;;;;5068666;28;20132;-84
2023/11/04 04:25:13;;;;;;;0.73;0.73;;;;;;;;;;5069013;28;20083;-84
2023/11/04 04:27:40;;;;;;;0.50;0.50;;;;;;;;;;5054137;28;20024;-84
2023/11/04 04:30:06;;;;;;;0.65;0.63;;;;;;;;;;5054136;28;20021;-84
2023/11/04 04:32:32;;;;;;;1.17;0.70;;;;;;;;;;5053482;28;20497;-84
2023/11/04 04:34:58;;;;;;;0.63;0.60;;;;;;;;;;5069212;28;20033;-85
2023/11/04 04:37:25;;;;;;;1.20;1.05;;;;;;;;;;5069035;28;20024;-84
2023/11/04 04:39:51;;;;;;;1.23;1.00;;;;;;;;;;5069376;28;20048;-83
2023/11/04 04:42:17;;;;;;;0.63;0.63;;;;;;;;;;5069103;28;20029;-83
2023/11/04 04:44:44;;;;;;;0.85;0.85;;;;;;;;;;5068743;28;20029;-84
2023/11/04 04:47:10;;;;;;;0.60;0.60;;;;;;;;;;5069074;28;20036;-84
2023/11/04 04:49:36;;;;;;;0.75;0.75;;;;;;;;;;5069564;28;20033;-84
2023/11/04 04:52:02;;;;;;;0.60;0.60;;;;;;;;;;5068789;28;20077;-83
2023/11/04 04:54:28;;;;;;;0.90;0.85;;;;;;;;;;5069368;28;20056;-83
2023/11/04 04:56:54;;;;;;;1.42;1.15;;;;;;;;;;5054605;28;20055;-83
2023/11/04 04:59:20;;;;;;;0.73;0.70;;;;;;;;;;5053373;28;20025;-84
2023/11/04 05:01:46;;;;;;;0.60;0.60;;;;;;;;;;5069287;28;20025;-84
2023/11/04 05:04:13;;;;;;;0.60;0.60;;;;;;;;;;5053707;28;20101;-84
2023/11/04 05:06:40;;;;;;;0.65;0.65;;;;;;;;;;5053178;28;20047;-83
2023/11/04 05:09:06;;;;;;;0.50;0.50;;;;;;;;;;5053286;28;20029;-85
2023/11/04 05:11:32;;;;;;;0.50;0.50;;;;;;;;;;5069310;28;20025;-84
2023/11/04 05:13:58;;;;;;;0.73;0.70;;;;;;;;;;5070905;28;20017;-84
2023/11/04 05:16:24;;;;;;;0.60;0.60;;;;;;;;;;5056487;28;20033;-84
2023/11/04 05:18:51;;;;;;;0.65;0.65;;;;;;;;;;5069627;28;20061;-85
2023/11/04 05:21:17;;;;;;;0.50;0.50;;;;;;;;;;5068491;28;20470;-86
2023/11/04 05:23:43;;;;;;;0.60;0.60;;;;;;;;;;5053418;28;20025;-85
2023/11/04 05:26:10;;;;;;;0.60;0.60;;;;;;;;;;5053062;28;20474;-84
2023/11/04 05:28:36;;;;;;;0.60;0.60;;;;;;;;;;5068380;28;20493;-84
2023/11/04 05:31:02;;;;;;;0.68;0.65;;;;;;;;;;5060580;28;20112;-84
2023/11/04 05:33:28;;;;;;;0.60;0.60;;;;;;;;;;5051807;28;20108;-84
2023/11/04 05:35:54;;;;;;;0.70;0.70;;;;;;;;;;5055891;28;20359;-84
2023/11/04 05:38:23;;;;;;;0.60;0.60;;;;;;;;;;5055922;28;20017;-84
2023/11/04 05:40:50;;;;;;;1.02;0.73;;;;;;;;;;5056774;28;20017;-83
2023/11/04 05:43:16;;;;;;;0.60;0.60;;;;;;;;;;5055899;28;20428;-82
2023/11/04 05:45:42;;;;;;;0.60;0.60;;;;;;;;;;5057058;28;20025;-83
2023/11/04 05:48:08;;;;;;;0.65;0.65;;;;;;;;;;5055416;28;20079;-83
2023/11/04 05:50:35;;;;;;;0.60;0.60;;;;;;;;;;5056893;28;20319;-84
2023/11/04 05:53:01;;;;;;;0.68;0.60;;;;;;;;;;5055448;28;20052;-84
2023/11/04 05:55:28;;;;;;;0.50;0.50;;;;;;;;;;5056528;28;20029;-83
2023/11/04 05:57:54;;;;;;;0.60;0.60;;;;;;;;;;5055559;28;20025;-84
2023/11/04 06:00:21;;;;;;;0.70;0.70;;;;;;;;;;5056654;28;20028;-84
2023/11/04 06:02:48;;;;;;;1.38;0.95;;;;;;;;;;5055133;28;20025;-84
2023/11/04 06:05:15;;;;;;;0.63;0.63;;;;;;;;;;5055451;28;20111;-83
2023/11/04 06:07:41;;;;;;;1.35;1.08;;;;;;;;;;5055535;28;20025;-84
2023/11/04 06:10:08;;;;;;;0.68;0.68;;;;;;;;;;5056359;28;20025;-85
2023/11/04 06:12:34;;;;;;;0.70;0.70;;;;;;;;;;5055264;28;20021;-84
2023/11/04 06:15:01;;;;;;;0.60;0.60;;;;;;;;;;5055125;28;20036;-84
2023/11/04 06:17:27;;;;;;;0.70;0.70;;;;;;;;;;5054890;28;20079;-84
2023/11/04 06:19:54;;;;;;;1.20;0.98;;;;;;;;;;5055109;28;20378;-83
2023/11/04 06:22:20;;;;;;;0.85;0.70;;;;;;;;;;5054747;28;20021;-85
2023/11/04 06:24:46;;;;;;;0.65;0.65;;;;;;;;;;5055713;28;20132;-84
2023/11/04 06:27:13;;;;;;;0.95;0.80;;;;;;;;;;5054945;28;20111;-84
2023/11/04 06:29:39;;;;;;;0.80;0.70;;;;;;;;;;5054553;28;20126;-84
2023/11/04 06:32:05;;;;;;;0.70;0.70;;;;;;;;;;5054873;28;20050;-84
2023/11/04 06:34:31;;;;;;;0.60;0.60;;;;;;;;;;5055339;28;20017;-84
2023/11/04 06:36:57;;;;;;;1.70;0.88;;;;;;;;;;5054567;28;20033;-83
2023/11/04 06:39:23;;;;;;;0.70;0.70;;;;;;;;;;5054558;28;20021;-83
2023/11/04 06:41:49;;;;;;;2.38;0.80;;;;;;;;;;5054823;28;20043;-83
2023/11/04 06:44:17;;;;;;;0.93;0.82;;;;;;;;;;5054296;28;20029;-84
2023/11/04 06:46:48;;;;;;;0.85;0.80;;;;;;;;;;5055101;28;20020;-83
2023/11/04 06:49:14;;;;;;;1.65;0.80;;;;;;;;;;5054449;28;20029;-82
2023/11/04 06:51:41;;;;;;;0.70;0.70;;;;;;;;;;5055293;28;20104;-82
2023/11/04 06:54:07;;;;;;;0.70;0.70;;;;;;;;;;5054588;28;20029;-83
2023/11/04 06:56:34;;;;;;;0.93;0.70;;;;;;;;;;5054998;28;20473;-83
2023/11/04 06:59:00;;;;;;;1.27;0.95;;;;;;;;;;5054174;28;20083;-84
2023/11/04 07:01:29;;;;;;;1.02;0.88;;;;;;;;;;5054482;28;20055;-84
2023/11/04 07:03:55;;;;;;;0.80;0.80;;;;;;;;;;5055696;28;20021;-83
2023/11/04 07:06:21;;;;;;;1.15;1.05;;;;;;;;;;5055493;28;20029;-82
2023/11/04 07:08:48;;;;;;;1.35;0.98;;;;;;;;;;5054287;28;20033;-82
2023/11/04 07:11:17;;;;;;;0.63;0.60;;;;;;;;;;5054346;28;20543;-83
2023/11/04 07:13:43;;;;;;;0.85;0.77;;;;;;;;;;5054075;28;20028;-84
2023/11/04 07:16:10;;;;;;;1.17;0.90;;;;;;;;;;5055184;28;20496;-83
2023/11/04 07:18:37;;;;;;;1.30;1.05;;;;;;;;;;5054589;28;20591;-83
2023/11/04 07:21:04;;;;;;;2.55;0.80;;;;;;;;;;5039095;28;20070;-84
2023/11/04 07:23:30;;;;;;;1.08;0.90;;;;;;;;;;5054439;28;20179;-84
2023/11/04 07:25:56;;;;;;;1.08;0.80;;;;;;;;;;5053438;28;20029;-84
2023/11/04 07:28:22;;;;;;;1.45;0.93;;;;;;;;;;5054001;28;20377;-83
2023/11/04 07:30:49;;;;;;;3.40;1.17;;;;;;;;;;5054564;28;20094;-83
2023/11/04 07:33:16;;;;;;;1.15;0.90;;;;;;;;;;5053322;28;20025;-83
2023/11/04 07:35:42;;;;;;;1.55;1.02;;;;;;;;;;5054946;28;20374;-82
2023/11/04 07:38:08;;;;;;;1.65;1.08;;;;;;;;;;5053797;28;20017;-83
2023/11/04 07:40:35;;;;;;;1.95;1.08;;;;;;;;;;5053391;28;20057;-82
2023/11/04 07:43:01;;;;;;;0.88;0.70;;;;;;;;;;5055055;28;20096;-84
2023/11/04 07:45:27;;;;;;;1.38;1.13;;;;;;;;;;5053374;28;20029;-83
2023/11/04 07:47:54;;;;;;;2.75;1.23;;;;;;;;;;5053236;28;20119;-84
2023/11/04 07:50:20;;;;;;;2.80;1.90;;;;;;;;;;5054404;28;20527;-84
2023/11/04 07:52:46;;;;;;;1.55;1.15;;;;;;;;;;5053221;28;20048;-83
2023/11/04 07:55:12;;;;;;;0.93;0.85;;;;;;;;;;5053274;28;20056;-84
2023/11/04 07:57:39;;;;;;;0.98;0.90;;;;;;;;;;5054454;28;20366;-85
2023/11/04 08:00:07;;;;;;;1.98;1.70;;;;;;;;;;5053499;28;20453;-84
2023/11/04 08:02:34;;;;;;;2.13;1.00;;;;;;;;;;5053115;28;20035;-85
2023/11/04 08:05:01;;;;;;;1.88;1.10;;;;;;;;;;5054002;28;20052;-83
2023/11/04 08:07:27;;;;;;;1.40;1.27;;;;;;;;;;5052800;28;20103;-85
2023/11/04 08:09:53;;;;;;;3.05;1.80;;;;;;;;;;5053002;28;20028;-84
2023/11/04 08:12:19;;;;;;;1.00;0.88;;;;;;;;;;5054004;28;20044;-83
2023/11/04 08:14:46;;;;;;;1.90;1.25;;;;;;;;;;5053085;28;20374;-84
2023/11/04 08:17:12;;;;;;;1.40;1.10;;;;;;;;;;5053103;28;20021;-85
2023/11/04 08:19:38;;;;;;;0.93;0.82;;;;;;;;;;5053194;28;20072;-84
2023/11/04 08:22:05;;;;;;;2.50;1.67;;;;;;;;;;5071833;28;20016;-83
2023/11/04 08:24:31;;;;;;;2.45;1.88;;;;;;;;;;5075457;28;20116;-84
2023/11/04 08:26:58;;;;;;;1.67;1.45;;;;;;;;;;5055464;28;20068;-83
2023/11/04 08:29:24;;;;;;;1.10;0.80;;;;;;;;;;5056177;28;20070;-84
2023/11/04 08:31:51;;;;;;;1.15;0.98;;;;;;;;;;5053304;28;20049;-85
2023/11/04 08:34:17;;;;;;;1.25;1.08;;;;;;;;;;5054139;28;20144;-87
2023/11/04 08:36:44;;;;;;;1.17;0.90;;;;;;;;;;5053545;28;20028;-84
2023/11/04 08:39:11;;;;;;;0.70;0.70;;;;;;;;;;5052116;28;20053;-84
2023/11/04 08:41:37;;;;;;;0.82;0.80;;;;;;;;;;5052641;28;20466;-85
2023/11/04 08:44:04;;;;;;;0.93;0.82;;;;;;;;;;5054103;28;20477;-84
2023/11/04 08:46:30;;;;;;;1.00;0.90;;;;;;;;;;5053429;28;20025;-82
2023/11/04 08:48:56;;;;;;;4.15;1.27;;;;;;;;;;5052599;28;20028;-83
2023/11/04 08:51:22;;;;;;;1.73;0.85;;;;;;;;;;5052753;28;20111;-83
2023/11/04 08:53:49;;;;;;;1.92;1.42;;;;;;;;;;5051916;28;20092;-83
2023/11/04 08:56:15;;;;;;;1.50;1.00;;;;;;;;;;5052956;28;20431;-82
2023/11/04 08:58:44;;;;;;;1.60;1.35;;;;;;;;;;5053448;28;20020;-83
2023/11/04 09:01:12;;;;;;;1.55;0.82;;;;;;;;;;5052145;28;20166;-85
2023/11/04 09:03:38;;;;;;;1.20;0.90;;;;;;;;;;5053963;28;20036;-83
2023/11/04 09:06:05;;;;;;;1.13;0.88;;;;;;;;;;5053278;28;20473;-85
2023/11/04 09:08:32;;;;;;;2.67;1.60;;;;;;;;;;5056885;28;20112;-82
2023/11/04 09:10:58;;;;;;;1.52;1.10;;;;;;;;;;5077103;28;20028;-82
2023/11/04 09:13:24;;;;;;;0.52;0.52;;;;;;;;;;5077105;28;20012;-83
2023/11/04 09:15:50;;;;;;;0.60;0.60;;;;;;;;;;5059014;28;20496;-83
2023/11/04 09:18:16;;;;;;;0.77;0.75;;;;;;;;;;5059946;28;20024;-83
2023/11/04 09:20:43;;;;;;;0.60;0.60;;;;;;;;;;5055424;28;20484;-83
2023/11/04 09:23:10;;;;;;;0.60;0.60;;;;;;;;;;5056911;28;20470;-84
2023/11/04 09:25:36;;;;;;;0.60;0.60;;;;;;;;;;5039491;28;20039;-83
2023/11/04 09:28:02;;;;;;;0.55;0.55;;;;;;;;;;5035639;28;20435;-82
2023/11/04 09:30:28;;;;;;;0.70;0.70;;;;;;;;;;5031285;28;20021;-82
2023/11/04 09:32:55;;;;;;;0.57;0.57;;;;;;;;;;5046359;28;20021;-81
2023/11/04 09:35:22;;;;;;;0.68;0.63;;;;;;;;;;5054894;28;20029;-80
2023/11/04 09:37:49;;;;;;;0.82;0.82;;;;;;;;;;5070477;28;20378;-81
2023/11/04 09:40:16;;;;;;;1.20;0.70;;;;;;;;;;5056763;28;20025;-81
2023/11/04 09:42:44;;;;;;;0.60;0.60;;;;;;;;;;5049714;28;20029;-82
2023/11/04 09:45:10;;;;;;;0.60;0.60;;;;;;;;;;5052083;28;20063;-81
2023/11/04 09:47:37;;;;;;;2.60;0.80;;;;;;;;;;5054966;28;20036;-81
2023/11/04 09:50:03;;;;;;;0.60;0.60;;;;;;;;;;5054279;28;20136;-81
2023/11/04 09:52:32;;;;;;;0.68;0.68;;;;;;;;;;5058618;28;20404;-81
2023/11/04 09:55:00;;;;;;;0.60;0.60;;;;;;;;;;5056395;28;20041;-81
2023/11/04 09:57:26;;;;;;;0.95;0.85;;;;;;;;;;5056583;28;20210;-81
2023/11/04 09:59:52;;;;;;;0.70;0.70;;;;;;;;;;5056015;28;20406;-81
2023/11/04 10:02:18;;;;;;;0.82;0.70;;;;;;;;;;5055209;28;20025;-80
2023/11/04 10:04:44;;;;;;;0.65;0.65;;;;;;;;;;5055769;28;20021;-78
2023/11/04 10:07:10;;;;;;;1.02;1.00;;;;;;;;;;5055026;28;20017;-81
2023/11/04 10:09:37;;;;;;;0.77;0.77;;;;;;;;;;5056306;28;20078;-83
2023/11/04 10:12:03;;;;;;;1.27;1.08;;;;;;;;;;5055571;28;20448;-82
2023/11/04 10:14:30;;;;;;;0.70;0.70;;;;;;;;;;5054850;28;20523;-81
2023/11/04 10:16:57;;;;;;;1.63;1.10;;;;;;;;;;5054396;28;20025;-81
2023/11/04 10:19:23;;;;;;;1.25;0.90;;;;;;;;;;5055664;28;20477;-81
2023/11/04 10:21:49;;;;;;;1.10;0.85;;;;;;;;;;5053612;28;20022;-80
2023/11/04 10:24:16;;;;;;;3.30;1.50;;;;;;;;;;5054481;28;20075;-80
2023/11/04 10:26:45;;;;;;;2.53;1.35;;;;;;;;;;5055459;28;20029;-80
2023/11/04 10:29:11;;;;;;;1.52;1.33;;;;;;;;;;5054561;28;20386;-81
2023/11/04 10:31:41;;;;;;;0.70;0.70;;;;;;;;;;5054028;28;20032;-80
2023/11/04 10:34:12;;;;;;;2.88;0.82;;;;;;;;;;5055950;28;20020;-79
2023/11/04 10:36:38;;;;;;;4.35;1.15;;;;;;;;;;5054752;28;20028;-80
2023/11/04 10:39:05;;;;;;;1.20;0.85;;;;;;;;;;5053564;28;20021;-82
2023/11/04 10:41:38;;;;;;;2.72;1.30;;;;;;;;;;5054378;28;20347;-80
2023/11/04 10:44:10;;;;;;;1.58;1.27;;;;;;;;;;5054318;28;20020;-80
2023/11/04 10:46:36;;;;;;;1.75;1.35;;;;;;;;;;5054031;28;20382;-81
2023/11/04 10:49:12;;;;;;;0.80;0.80;;;;;;;;;;5054135;28;20036;-80
2023/11/04 10:51:44;;;;;;;1.00;0.93;;;;;;;;;;5055533;28;20031;-80
2023/11/04 10:54:11;;;;;;;0.73;0.73;;;;;;;;;;5074679;28;20037;-82
2023/11/04 10:56:41;;;;;;;0.90;0.85;;;;;;;;;;5055858;28;20029;-82
2023/11/04 10:59:13;;;;;;;2.90;2.17;;;;;;;;;;5053960;28;20037;-83
2023/11/04 11:01:41;;;;;;;0.77;0.77;;;;;;;;;;5062117;28;20100;-81
2023/11/04 11:04:09;;;;;;;1.80;1.13;;;;;;;;;;5041698;28;20025;-83
2023/11/04 11:06:35;;;;;;;0.80;0.77;;;;;;;;;;5044854;28;20378;-83
2023/11/04 11:09:05;;;;;;;2.38;1.67;;;;;;;;;;5038037;28;20043;-81
2023/11/04 11:11:51;;;;;;;0.70;0.70;;;;;;;;;;5051885;28;20067;-82
2023/11/04 11:14:18;;;;;;;1.38;1.25;;;;;;;;;;5012279;28;20096;-81
2023/11/04 11:16:44;;;;;;;0.70;0.70;;;;;;;;;;5033407;28;20030;-84
2023/11/04 11:19:13;;;;;;;0.70;0.70;;;;;;;;;;5037042;28;20116;-81
2023/11/04 11:21:49;;;;;;;0.50;0.50;;;;;;;;;;5039873;28;20027;-81
2023/11/04 11:24:20;;;;;;;0.85;0.82;;;;;;;;;;5049903;28;20048;-83
2023/11/04 11:26:47;;;;;;;0.60;0.60;;;;;;;;;;5048947;28;20418;-85
2023/11/04 11:29:23;;;;;;;0.98;0.85;;;;;;;;;;5050124;28;20033;-82
2023/11/04 11:31:50;;;;;;;2.05;0.80;;;;;;;;;;5052571;28;20490;-82
2023/11/04 11:34:18;;;;;;;1.38;0.90;;;;;;;;;;5050620;28;20021;-84
2023/11/04 11:36:46;;;;;;;1.35;0.90;;;;;;;;;;5070037;28;20076;-85
2023/11/04 11:39:13;;;;;;;1.75;1.15;;;;;;;;;;5057103;28;20367;-82
2023/11/04 11:41:43;;;;;;;1.08;1.02;;;;;;;;;;5075276;28;20091;-84
2023/11/04 11:44:09;;;;;;;1.25;0.85;;;;;;;;;;5056304;28;20021;-83
2023/11/04 11:46:35;;;;;;;1.00;0.82;;;;;;;;;;5056440;28;20028;-83
2023/11/04 11:49:07;;;;;;;0.60;0.60;;;;;;;;;;5073770;28;20083;-83
2023/11/04 11:51:35;;;;;;;0.47;0.47;;;;;;;;;;5074656;28;20016;-84
2023/11/04 11:54:02;;;;;;;1.52;0.85;;;;;;;;;;5054594;28;20490;-83
2023/11/04 11:56:31;;;;;;;0.60;0.60;;;;;;;;;;5036016;28;20036;-82
2023/11/04 11:59:06;;;;;;;0.82;0.82;;;;;;;;;;5032750;28;20032;-84
2023/11/04 12:01:33;;;;;;;0.50;0.50;;;;;;;;;;5034037;28;20014;-83
2023/11/04 12:04:01;;;;;;;0.63;0.63;;;;;;;;;;5034024;28;20021;-83
2023/11/04 12:06:31;;;;;;;0.60;0.60;;;;;;;;;;5016376;28;20116;-84
2023/11/04 12:08:57;;;;;;;1.23;0.85;;;;;;;;;;5016599;28;20505;-83
2023/11/04 12:11:29;;;;;;;1.17;0.95;;;;;;;;;;5012774;28;20464;-86
2023/11/04 12:13:55;;;;;;;0.80;0.80;;;;;;;;;;5033195;28;20030;-84
2023/11/04 12:16:24;;;;;;;0.70;0.70;;;;;;;;;;5033550;28;20029;-83
2023/11/04 12:18:52;;;;;;;0.90;0.77;;;;;;;;;;5032948;28;20021;-84
2023/11/04 12:21:18;;;;;;;0.70;0.70;;;;;;;;;;5031992;28;20021;-85
2023/11/04 12:23:46;;;;;;;0.60;0.60;;;;;;;;;;5032421;28;20021;-85
2023/11/04 12:26:12;;;;;;;0.60;0.60;;;;;;;;;;5033878;28;20471;-85
2023/11/04 12:28:40;;;;;;;0.60;0.60;;;;;;;;;;5033985;28;20379;-84
2023/11/04 12:31:07;;;;;;;0.60;0.60;;;;;;;;;;5033506;28;20032;-84
2023/11/04 12:33:36;;;;;;;0.85;0.80;;;;;;;;;;5016092;28;20021;-82
2023/11/04 12:36:12;;;;;;;0.70;0.70;;;;;;;;;;5034007;28;20421;-84
2023/11/04 12:38:39;;;;;;;1.27;0.60;;;;;;;;;;5032320;28;20370;-83
2023/11/04 12:41:09;;;;;;;0.60;0.60;;;;;;;;;;5033727;28;20032;-83
2023/11/04 12:43:36;;;;;;;2.22;0.82;;;;;;;;;;5031111;28;20022;-82
2023/11/04 12:46:03;;;;;;;0.85;0.85;;;;;;;;;;5031563;28;20033;-84
2023/11/04 12:48:32;;;;;;;0.50;0.50;;;;;;;;;;5034015;28;20097;-86
2023/11/04 12:50:58;;;;;;;0.60;0.60;;;;;;;;;;5015970;28;20029;-83
2023/11/04 12:53:25;;;;;;;0.73;0.60;;;;;;;;;;5040557;28;20095;-82
2023/11/04 12:55:54;;;;;;;0.77;0.77;;;;;;;;;;5052797;28;20071;-86
2023/11/04 12:58:20;;;;;;;0.60;0.60;;;;;;;;;;5052252;28;20028;-84
2023/11/04 13:00:46;;;;;;;0.57;0.57;;;;;;;;;;5052073;28;20029;-83
2023/11/04 13:03:13;;;;;;;0.55;0.55;;;;;;;;;;5052346;28;20421;-82
2023/11/04 13:05:39;;;;;;;0.60;0.60;;;;;;;;;;5053450;28;20021;-84
2023/11/04 13:08:06;;;;;;;0.57;0.57;;;;;;;;;;5052414;28;20493;-84
2023/11/04 13:10:32;;;;;;;0.60;0.60;;;;;;;;;;5073486;28;20050;-84
2023/11/04 13:12:58;;;;;;;1.08;0.98;;;;;;;;;;5073402;28;20032;-86
2023/11/04 13:15:24;;;;;;;0.60;0.60;;;;;;;;;;5073618;28;20031;-84
2023/11/04 13:17:50;;;;;;;0.60;0.60;;;;;;;;;;5055702;28;20556;-83
2023/11/04 13:20:19;;;;;;;0.60;0.60;;;;;;;;;;5054880;28;20052;-84
2023/11/04 13:22:45;;;;;;;0.60;0.60;;;;;;;;;;5055717;28;20021;-83
2023/11/04 13:25:11;;;;;;;0.55;0.55;;;;;;;;;;5073154;28;20540;-86
2023/11/04 13:27:38;;;;;;;0.80;0.80;;;;;;;;;;5072684;28;20060;-83
2023/11/04 13:30:04;;;;;;;0.70;0.70;;;;;;;;;;5055138;28;20027;-82
2023/11/04 13:32:30;;;;;;;0.60;0.60;;;;;;;;;;5073201;28;20023;-82
2023/11/04 13:34:56;;;;;;;1.15;1.05;;;;;;;;;;5072939;28;20028;-83
2023/11/04 13:37:22;;;;;;;0.55;0.55;;;;;;;;;;5055318;28;20052;-82
2023/11/04 13:39:48;;;;;;;0.68;0.68;;;;;;;;;;5072431;28;20071;-80
2023/11/04 13:42:14;;;;;;;0.60;0.60;;;;;;;;;;5055327;28;20470;-81
2023/11/04 13:44:41;;;;;;;0.50;0.50;;;;;;;;;;5055468;28;20119;-80
2023/11/04 13:47:07;;;;;;;0.68;0.68;;;;;;;;;;5054785;28;20037;-80
2023/11/04 13:49:33;;;;;;;0.50;0.50;;;;;;;;;;5073418;28;20029;-79
2023/11/04 13:52:00;;;;;;;0.60;0.60;;;;;;;;;;5073092;28;20032;-80
2023/11/04 13:54:27;;;;;;;0.43;0.43;;;;;;;;;;5073731;28;20031;-81
2023/11/04 13:56:54;;;;;;;0.60;0.60;;;;;;;;;;5076630;28;20033;-80
2023/11/04 13:59:20;;;;;;;0.60;0.60;;;;;;;;;;5078075;28;20052;-83
2023/11/04 14:01:46;;;;;;;0.60;0.60;;;;;;;;;;5075866;28;20024;-84
2023/11/04 14:04:13;;;;;;;0.65;0.65;;;;;;;;;;5059134;28;20131;-81
2023/11/04 14:06:39;;;;;;;0.60;0.60;;;;;;;;;;5058926;28;20024;-82
2023/11/04 14:09:06;;;;;;;0.60;0.60;;;;;;;;;;5058305;28;20056;-84
2023/11/04 14:11:32;;;;;;;0.60;0.60;;;;;;;;;;5076393;28;20021;-83
2023/11/04 14:13:58;;;;;;;0.60;0.60;;;;;;;;;;5058670;28;20363;-82
2023/11/04 14:16:25;;;;;;;1.60;1.13;;;;;;;;;;5057920;28;20119;-81
2023/11/04 14:18:53;;;;;;;0.70;0.70;;;;;;;;;;5037742;28;20686;-81
2023/11/04 14:21:19;;;;;;;0.50;0.50;;;;;;;;;;5055675;28;20024;-81
2023/11/04 14:23:46;;;;;;;0.60;0.60;;;;;;;;;;5055468;28;20032;-81
2023/11/04 14:26:12;;;;;;;0.70;0.70;;;;;;;;;;5055936;28;20017;-81
2023/11/04 14:28:39;;;;;;;0.80;0.80;;;;;;;;;;5056046;28;20021;-80
2023/11/04 14:31:05;;;;;;;0.50;0.50;;;;;;;;;;5053804;28;20072;-80
2023/11/04 14:33:31;;;;;;;0.75;0.75;;;;;;;;;;5054584;28;20052;-82
2023/11/04 14:35:57;;;;;;;0.73;0.73;;;;;;;;;;5054279;28;20445;-81
2023/11/04 14:38:23;;;;;;;0.60;0.60;;;;;;;;;;5055709;28;20025;-80
2023/11/04 14:40:50;;;;;;;0.50;0.50;;;;;;;;;;5055116;28;20021;-83